createdAt,value
2023-04-04T00:00:39.312Z,99.90
2023-04-04T00:03:28.386Z,99.90
2023-04-04T00:06:17.256Z,99.90
2023-04-04T00:09:08.202Z,99.90
2023-04-04T00:11:56.992Z,99.90
2023-04-04T00:14:45.894Z,99.90
2023-04-04T00:17:34.711Z,99.90
2023-04-04T00:20:23.479Z,99.90
2023-04-04T00:23:12.411Z,99.90
2023-04-04T00:26:03.398Z,99.90
2023-04-04T00:28:52.291Z,99.90
2023-04-04T00:31:41.108Z,99.90
2023-04-04T00:34:30.211Z,99.90
2023-04-04T00:37:19.037Z,99.90
2023-04-04T00:40:09.873Z,99.90
2023-04-04T00:43:01.796Z,99.90
2023-04-04T00:45:51.479Z,99.90
2023-04-04T00:48:42.375Z,99.90
2023-04-04T00:51:31.787Z,99.90
2023-04-04T00:54:20.779Z,99.90
2023-04-04T00:57:10.850Z,99.90
2023-04-04T01:00:04.339Z,99.90
2023-04-04T01:02:53.238Z,99.90
2023-04-04T01:05:42.562Z,99.90
2023-04-04T01:08:32.139Z,99.90
2023-04-04T01:11:21.978Z,99.90
2023-04-04T01:14:11.183Z,99.90
2023-04-04T01:17:03.487Z,99.90
2023-04-04T01:20:02.411Z,99.90
2023-04-04T01:22:59.673Z,99.90
2023-04-04T01:25:51.503Z,99.90
2023-04-04T01:28:41.150Z,99.90
2023-04-04T01:31:39.319Z,99.90
2023-04-04T01:34:33.726Z,99.90
2023-04-04T01:37:29.256Z,99.90
2023-04-04T01:40:24.906Z,99.90
2023-04-04T01:43:17.488Z,99.90
2023-04-04T01:46:07.799Z,99.90
2023-04-04T01:48:57.507Z,99.90
2023-04-04T01:51:53.717Z,99.90
2023-04-04T01:54:43.375Z,99.90
2023-04-04T01:57:32.415Z,99.90
2023-04-04T02:00:22.776Z,99.90
2023-04-04T02:03:11.574Z,99.90
2023-04-04T02:06:00.541Z,99.90
2023-04-04T02:08:49.902Z,99.90
2023-04-04T02:11:39.189Z,99.90
2023-04-04T02:14:28.032Z,99.90
2023-04-04T02:17:19.457Z,99.90
2023-04-04T02:20:10.748Z,99.90
2023-04-04T02:23:00.237Z,99.90
2023-04-04T02:25:51.934Z,99.90
2023-04-04T02:28:41.346Z,99.90
2023-04-04T02:31:32.375Z,99.90
2023-04-04T02:34:22.745Z,99.90
2023-04-04T02:37:14.203Z,99.90
2023-04-04T02:40:03.754Z,99.90
2023-04-04T02:42:55.622Z,99.90
2023-04-04T02:45:44.484Z,99.90
2023-04-04T02:48:42.342Z,99.90
2023-04-04T02:51:34.274Z,99.90
2023-04-04T02:54:23.673Z,99.90
2023-04-04T02:57:12.623Z,99.90
2023-04-04T03:00:01.568Z,99.90
2023-04-04T03:02:56.237Z,99.90
2023-04-04T03:05:52.241Z,99.90
2023-04-04T03:08:42.462Z,99.90
2023-04-04T03:11:32.227Z,99.90
2023-04-04T03:14:21.554Z,99.90
2023-04-04T03:17:10.915Z,99.90
2023-04-04T03:19:59.803Z,99.90
2023-04-04T03:22:48.652Z,99.90
2023-04-04T03:25:39.799Z,99.90
2023-04-04T03:28:29.431Z,99.90
2023-04-04T03:31:19.087Z,99.90
2023-04-04T03:34:08.490Z,99.90
2023-04-04T03:36:57.762Z,99.90
2023-04-04T03:39:46.718Z,99.90
2023-04-04T03:42:37.263Z,99.90
2023-04-04T03:45:30.287Z,99.90
2023-04-04T03:48:19.192Z,99.90
2023-04-04T03:51:08.098Z,99.90
2023-04-04T03:53:57.806Z,99.90
2023-04-04T03:56:46.733Z,99.90
2023-04-04T03:59:37.757Z,99.90
2023-04-04T04:02:27.562Z,99.90
2023-04-04T04:05:19.224Z,99.90
2023-04-04T04:08:08.102Z,99.90
2023-04-04T04:10:57.698Z,99.90
2023-04-04T04:13:46.639Z,99.90
2023-04-04T04:16:40.533Z,99.90
2023-04-04T04:19:30.861Z,99.90
2023-04-04T04:22:19.806Z,99.90
2023-04-04T04:25:09.570Z,99.90
2023-04-04T04:27:58.507Z,99.90
2023-04-04T04:30:48.835Z,99.90
2023-04-04T04:33:42.973Z,99.90
2023-04-04T04:36:32.745Z,99.90
2023-04-04T04:39:44.831Z,99.90
2023-04-04T04:42:57.110Z,99.90
2023-04-04T04:45:46.648Z,99.90
2023-04-04T04:49:02.033Z,99.90
2023-04-04T04:51:53.818Z,99.90
2023-04-04T04:54:44.724Z,99.90
2023-04-04T04:57:34.475Z,99.90
2023-04-04T05:00:27.946Z,99.90
2023-04-04T05:03:17.293Z,99.90
2023-04-04T05:06:12.582Z,99.90
2023-04-04T05:09:01.945Z,99.90
2023-04-04T05:11:54.857Z,99.90
2023-04-04T05:14:47.867Z,99.90
2023-04-04T05:17:37.462Z,99.90
2023-04-04T05:20:29.500Z,99.90
2023-04-04T05:23:23.080Z,99.90
2023-04-04T05:26:11.768Z,99.90
2023-04-04T05:29:01.719Z,99.90
2023-04-04T05:31:51.999Z,99.90
2023-04-04T05:34:44.180Z,99.90
2023-04-04T05:37:40.655Z,99.90
2023-04-04T05:40:34.781Z,99.90
2023-04-04T05:43:31.467Z,99.90
2023-04-04T05:46:28.651Z,99.90
2023-04-04T05:49:18.972Z,99.90
2023-04-04T05:52:17.015Z,99.90
2023-04-04T05:55:06.955Z,99.90
2023-04-04T05:57:57.920Z,99.90
2023-04-04T06:00:58.611Z,99.90
2023-04-04T06:03:47.835Z,99.90
2023-04-04T06:06:42.876Z,99.90
2023-04-04T06:09:32.002Z,99.90
2023-04-04T06:12:21.357Z,99.90
2023-04-04T06:15:12.432Z,99.90
2023-04-04T06:18:03.767Z,99.90
2023-04-04T06:20:52.589Z,99.90
2023-04-04T06:23:41.576Z,99.90
2023-04-04T06:26:30.408Z,99.90
2023-04-04T06:29:22.751Z,99.90
2023-04-04T06:32:13.834Z,99.90
2023-04-04T06:35:05.613Z,99.90
2023-04-04T06:38:04.283Z,99.90
2023-04-04T06:40:53.332Z,99.90
2023-04-04T06:43:42.144Z,99.90
2023-04-04T06:46:33.337Z,99.90
2023-04-04T06:49:23.810Z,99.90
2023-04-04T06:52:12.812Z,99.90
2023-04-04T06:55:03.366Z,99.90
2023-04-04T06:57:52.234Z,99.90
2023-04-04T07:00:41.587Z,99.90
2023-04-04T07:03:31.122Z,99.90
2023-04-04T07:06:25.800Z,99.90
2023-04-04T07:09:25.943Z,99.90
2023-04-04T07:12:21.026Z,99.90
2023-04-04T07:15:11.428Z,99.90
2023-04-04T07:18:00.188Z,99.90
2023-04-04T07:20:49.650Z,99.90
2023-04-04T07:23:40.024Z,99.90
2023-04-04T07:26:29.153Z,99.90
2023-04-04T07:29:18.618Z,99.90
2023-04-04T07:32:08.918Z,99.90
2023-04-04T07:34:57.965Z,99.90
2023-04-04T07:37:47.176Z,99.90
2023-04-04T07:40:37.819Z,99.90
2023-04-04T07:43:27.583Z,99.90
2023-04-04T07:46:19.751Z,99.90
2023-04-04T07:49:08.873Z,99.90
2023-04-04T07:51:57.696Z,99.90
2023-04-04T07:54:47.572Z,99.90
2023-04-04T07:57:40.329Z,99.90
2023-04-04T08:00:29.130Z,99.90
2023-04-04T08:03:20.774Z,99.90
2023-04-04T08:06:09.764Z,99.90
2023-04-04T08:08:58.619Z,99.90
2023-04-04T08:11:47.410Z,99.90
2023-04-04T08:14:37.863Z,99.90
2023-04-04T08:17:26.881Z,99.90
2023-04-04T08:20:18.080Z,99.90
2023-04-04T08:23:09.943Z,99.90
2023-04-04T08:26:00.286Z,99.90
2023-04-04T08:28:50.312Z,99.90
2023-04-04T08:31:40.766Z,99.90
2023-04-04T08:34:29.762Z,99.90
2023-04-04T08:37:18.954Z,99.90
2023-04-04T08:40:09.587Z,99.90
2023-04-04T08:42:58.853Z,99.90
2023-04-04T08:45:52.146Z,99.90
2023-04-04T08:48:45.528Z,99.90
2023-04-04T08:51:37.309Z,99.90
2023-04-04T08:54:27.944Z,99.90
2023-04-04T08:57:19.730Z,99.90
2023-04-04T09:00:10.231Z,99.90
2023-04-04T09:03:08.295Z,99.90
2023-04-04T09:05:58.862Z,99.90
2023-04-04T09:08:48.647Z,99.90
2023-04-04T09:11:38.116Z,99.90
2023-04-04T09:14:28.250Z,99.90
2023-04-04T09:17:19.644Z,99.90
2023-04-04T09:20:34.762Z,99.90
2023-04-04T09:23:25.829Z,99.90
2023-04-04T09:26:14.829Z,99.90
2023-04-04T09:29:03.918Z,99.90
2023-04-04T09:31:52.839Z,99.90
2023-04-04T09:34:42.200Z,99.90
2023-04-04T09:37:32.138Z,99.90
2023-04-04T09:40:24.218Z,99.90
2023-04-04T09:43:14.720Z,99.90
2023-04-04T09:46:05.608Z,99.90
2023-04-04T09:48:55.633Z,99.90
2023-04-04T09:51:50.248Z,99.90
2023-04-04T09:54:47.958Z,99.90
2023-04-04T09:57:39.521Z,99.90
2023-04-04T10:00:31.964Z,99.90
2023-04-04T10:03:24.206Z,99.90
2023-04-04T10:06:13.086Z,99.90
2023-04-04T10:09:04.135Z,99.90
2023-04-04T10:12:08.864Z,99.90
2023-04-04T10:15:00.211Z,99.90
2023-04-04T10:17:49.771Z,99.90
2023-04-04T10:20:39.259Z,99.90
2023-04-04T10:23:28.557Z,99.90
2023-04-04T10:26:18.220Z,99.80
2023-04-04T10:29:06.981Z,99.60
2023-04-04T10:32:03.582Z,98.40
2023-04-04T10:35:01.043Z,97.60
2023-04-04T10:37:57.722Z,98.10
2023-04-04T10:40:49.552Z,98.20
2023-04-04T10:43:42.871Z,97.50
2023-04-04T10:46:35.042Z,98.70
2023-04-04T10:49:26.296Z,98.70
2023-04-04T10:52:18.586Z,99.30
2023-04-04T10:55:09.910Z,99.70
2023-04-04T10:57:59.076Z,99.90
2023-04-04T11:00:51.957Z,99.90
2023-04-04T11:04:21.802Z,99.90
2023-04-04T11:07:19.782Z,99.30
2023-04-04T11:10:16.944Z,99.20
2023-04-04T11:13:14.003Z,99.50
2023-04-04T11:16:07.847Z,99.20
2023-04-04T11:19:01.849Z,99.10
2023-04-04T11:21:52.678Z,99.30
2023-04-04T11:24:46.047Z,99.30
2023-04-04T11:27:36.056Z,99.30
2023-04-04T11:30:25.115Z,99.70
2023-04-04T11:33:15.759Z,98.60
2023-04-04T11:36:08.550Z,98.80
2023-04-04T11:39:00.137Z,99.00
2023-04-04T11:41:54.041Z,98.80
2023-04-04T11:45:03.256Z,99.10
2023-04-04T11:47:52.828Z,99.20
2023-04-04T11:50:42.881Z,99.90
2023-04-04T11:53:34.312Z,99.90
2023-04-04T11:56:23.930Z,99.90
2023-04-04T11:59:15.859Z,99.90
2023-04-04T12:02:05.127Z,99.90
2023-04-04T12:04:54.258Z,99.90
2023-04-04T12:08:02.299Z,99.90
2023-04-04T12:10:53.106Z,99.90
2023-04-04T12:13:44.781Z,99.90
2023-04-04T12:16:37.359Z,99.90
2023-04-04T12:19:26.584Z,99.90
2023-04-04T12:22:17.211Z,99.90
2023-04-04T12:25:06.842Z,99.90
2023-04-04T12:27:57.317Z,99.90
2023-04-04T12:30:46.406Z,99.90
2023-04-04T12:33:38.149Z,99.90
2023-04-04T12:36:27.705Z,99.90
2023-04-04T12:39:18.559Z,99.90
2023-04-04T12:42:07.754Z,99.90
2023-04-04T12:44:58.828Z,99.90
2023-04-04T12:47:54.037Z,99.90
2023-04-04T12:50:55.882Z,99.90
2023-04-04T12:53:53.663Z,99.90
2023-04-04T12:56:42.985Z,99.90
2023-04-04T12:59:32.897Z,99.90
2023-04-04T13:02:24.285Z,99.90
2023-04-04T13:05:13.434Z,99.90
2023-04-04T13:08:09.820Z,99.90
2023-04-04T13:11:07.104Z,99.90
2023-04-04T13:14:03.518Z,99.90
2023-04-04T13:17:04.872Z,99.90
2023-04-04T13:19:54.027Z,99.90
2023-04-04T13:22:44.140Z,99.90
2023-04-04T13:25:34.989Z,99.90
2023-04-04T13:28:23.752Z,99.90
2023-04-04T13:31:13.492Z,99.90
2023-04-04T13:34:02.735Z,99.90
2023-04-04T13:36:51.773Z,99.90
2023-04-04T13:39:40.536Z,99.90
2023-04-04T13:42:32.000Z,99.90
2023-04-04T13:45:21.313Z,99.90
2023-04-04T13:48:10.501Z,99.90
2023-04-04T13:50:59.238Z,99.90
2023-04-04T13:53:49.082Z,99.90
2023-04-04T13:56:38.167Z,99.90
2023-04-04T13:59:28.478Z,99.90
2023-04-04T14:02:17.371Z,99.90
2023-04-04T14:05:08.170Z,99.90
2023-04-04T14:07:56.940Z,99.90
2023-04-04T14:10:45.764Z,99.90
2023-04-04T14:13:34.559Z,99.90
2023-04-04T14:16:24.782Z,99.90
2023-04-04T14:19:13.504Z,99.90
2023-04-04T14:22:02.567Z,99.90
2023-04-04T14:24:51.304Z,99.90
2023-04-04T14:27:40.194Z,99.90
2023-04-04T14:30:29.057Z,99.90
2023-04-04T14:33:19.241Z,99.90
2023-04-04T14:36:08.324Z,99.90
2023-04-04T14:38:59.897Z,99.90
2023-04-04T14:41:49.698Z,99.90
2023-04-04T14:44:38.638Z,99.90
2023-04-04T14:47:27.745Z,99.90
2023-04-04T14:50:20.108Z,99.90
2023-04-04T14:53:09.412Z,99.90
2023-04-04T14:55:58.594Z,99.90
2023-04-04T14:58:47.579Z,99.90
2023-04-04T15:01:36.717Z,99.90
2023-04-04T15:04:25.754Z,99.90
2023-04-04T15:07:16.085Z,99.90
2023-04-04T15:10:05.433Z,99.90
2023-04-04T15:12:54.421Z,99.90
2023-04-04T15:15:43.169Z,99.90
2023-04-04T15:18:32.303Z,99.90
2023-04-04T15:21:21.345Z,99.90
2023-04-04T15:24:11.851Z,99.90
2023-04-04T15:27:01.797Z,99.90
2023-04-04T15:29:50.707Z,99.90
2023-04-04T15:32:39.660Z,99.90
2023-04-04T15:35:28.525Z,99.90
2023-04-04T15:38:17.401Z,99.90
2023-04-04T15:41:09.538Z,99.90
2023-04-04T15:43:58.706Z,99.90
2023-04-04T15:46:47.546Z,99.90
2023-04-04T15:49:36.819Z,99.90
2023-04-04T15:52:26.847Z,99.90
2023-04-04T15:55:17.267Z,99.90
2023-04-04T15:58:07.926Z,99.90
2023-04-04T16:00:57.102Z,99.90
2023-04-04T16:03:46.110Z,99.90
2023-04-04T16:06:36.958Z,99.90
2023-04-04T16:09:26.861Z,99.90
2023-04-04T16:12:15.825Z,99.90
2023-04-04T16:15:08.174Z,99.90
2023-04-04T16:17:59.048Z,99.90
2023-04-04T16:20:48.007Z,99.90
2023-04-04T16:23:37.258Z,99.90
2023-04-04T16:26:26.195Z,99.90
2023-04-04T16:29:15.841Z,99.90
2023-04-04T16:32:08.568Z,99.90
2023-04-04T16:34:57.921Z,99.90
2023-04-04T16:37:47.493Z,99.90
2023-04-04T16:40:36.905Z,99.90
2023-04-04T16:43:26.018Z,99.90
2023-04-04T16:46:15.499Z,99.90
2023-04-04T16:49:06.688Z,99.90
2023-04-04T16:51:55.900Z,99.90
2023-04-04T16:54:45.737Z,99.90
2023-04-04T16:57:34.799Z,99.90
2023-04-04T17:00:24.244Z,99.90
2023-04-04T17:03:13.182Z,99.90
2023-04-04T17:06:03.608Z,99.90
2023-04-04T17:08:52.826Z,99.90
2023-04-04T17:11:44.831Z,99.90
2023-04-04T17:14:33.796Z,99.90
2023-04-04T17:17:22.863Z,99.90
2023-04-04T17:20:18.346Z,99.90
2023-04-04T17:23:08.591Z,99.90
2023-04-04T17:25:57.341Z,99.90
2023-04-04T17:28:46.241Z,99.90
2023-04-04T17:31:35.053Z,99.90
2023-04-04T17:34:24.371Z,99.90
2023-04-04T17:37:13.433Z,99.90
2023-04-04T17:40:05.496Z,99.90
2023-04-04T17:42:54.314Z,99.90
2023-04-04T17:45:44.338Z,99.90
2023-04-04T17:48:36.808Z,99.90
2023-04-04T17:51:26.472Z,99.90
2023-04-04T17:54:18.014Z,99.90
2023-04-04T17:57:08.300Z,99.90
2023-04-04T17:59:57.454Z,99.90
2023-04-04T18:02:46.535Z,99.90
2023-04-04T18:05:35.416Z,99.90
2023-04-04T18:08:24.415Z,99.90
2023-04-04T18:11:13.332Z,99.90
2023-04-04T18:14:03.814Z,99.90
2023-04-04T18:16:52.646Z,99.90
2023-04-04T18:19:42.646Z,99.90
2023-04-04T18:22:31.943Z,99.90
2023-04-04T18:25:21.251Z,99.90
2023-04-04T18:28:10.122Z,99.90
2023-04-04T18:31:01.136Z,99.90
2023-04-04T18:33:50.844Z,99.90
2023-04-04T18:36:39.969Z,99.90
2023-04-04T18:39:29.171Z,99.90
2023-04-04T18:42:18.297Z,99.90
2023-04-04T18:45:09.801Z,99.90
2023-04-04T18:48:00.241Z,99.90
2023-04-04T18:50:49.768Z,99.90
2023-04-04T18:53:38.757Z,99.90
2023-04-04T18:56:27.733Z,99.90
2023-04-04T18:59:18.229Z,99.90
2023-04-04T19:02:07.262Z,99.90
2023-04-04T19:04:59.492Z,99.90
2023-04-04T19:07:49.526Z,99.90
2023-04-04T19:10:39.279Z,99.90
2023-04-04T19:13:31.489Z,99.90
2023-04-04T19:16:27.970Z,99.90
2023-04-04T19:19:19.336Z,99.90
2023-04-04T19:22:09.569Z,99.90
2023-04-04T19:24:58.304Z,99.90
2023-04-04T19:27:47.107Z,99.90
2023-04-04T19:30:43.805Z,99.90
2023-04-04T19:33:34.545Z,99.90
2023-04-04T19:36:24.426Z,99.90
2023-04-04T19:39:21.128Z,99.90
2023-04-04T19:42:10.947Z,99.90
2023-04-04T19:44:59.795Z,99.90
2023-04-04T19:47:48.743Z,99.90
2023-04-04T19:50:38.414Z,99.90
2023-04-04T19:53:29.786Z,99.90
2023-04-04T19:56:23.028Z,99.90
2023-04-04T19:59:48.992Z,99.90
2023-04-04T20:02:58.143Z,99.90
2023-04-04T20:05:59.497Z,99.90
2023-04-04T20:08:49.167Z,99.90
2023-04-04T20:11:39.757Z,99.90
2023-04-04T20:14:28.851Z,99.90
2023-04-04T20:17:21.606Z,99.90
2023-04-04T20:20:13.312Z,99.90
2023-04-04T20:23:02.439Z,99.90
2023-04-04T20:25:52.568Z,99.90
2023-04-04T20:28:46.187Z,99.90
2023-04-04T20:31:37.270Z,99.90
2023-04-04T20:34:46.220Z,99.90
2023-04-04T20:37:35.221Z,99.90
2023-04-04T20:40:40.495Z,99.90
2023-04-04T20:43:30.334Z,99.90
2023-04-04T20:46:22.285Z,99.90
2023-04-04T20:49:11.993Z,99.90
2023-04-04T20:52:01.068Z,99.90
2023-04-04T20:54:50.028Z,99.90
2023-04-04T20:57:39.030Z,99.90
2023-04-04T21:00:42.156Z,99.90
2023-04-04T21:03:37.323Z,99.90
2023-04-04T21:06:31.156Z,99.90
2023-04-04T21:09:20.620Z,99.90
2023-04-04T21:12:09.585Z,99.90
2023-04-04T21:14:58.358Z,99.90
2023-04-04T21:17:47.231Z,99.90
2023-04-04T21:21:07.887Z,99.90
2023-04-04T21:23:58.107Z,99.90
2023-04-04T21:26:46.908Z,99.90
2023-04-04T21:29:35.673Z,99.90
2023-04-04T21:32:24.601Z,99.90
2023-04-04T21:35:33.818Z,99.90
2023-04-04T21:38:31.193Z,99.90
2023-04-04T21:41:25.741Z,99.90
2023-04-04T21:44:15.813Z,99.90
2023-04-04T21:47:04.804Z,99.90
2023-04-04T21:49:53.559Z,99.90
2023-04-04T21:52:42.355Z,99.90
2023-04-04T21:55:32.418Z,99.90
2023-04-04T21:58:21.351Z,99.90
2023-04-04T22:01:11.040Z,99.90
2023-04-04T22:04:00.272Z,99.90
2023-04-04T22:06:49.166Z,99.90
2023-04-04T22:09:40.518Z,99.90
2023-04-04T22:12:32.384Z,99.90
2023-04-04T22:15:21.315Z,99.90
2023-04-04T22:18:15.009Z,99.90
2023-04-04T22:21:04.396Z,99.90
2023-04-04T22:23:54.084Z,99.90
2023-04-04T22:26:42.850Z,99.90
2023-04-04T22:29:33.425Z,99.90
2023-04-04T22:32:22.273Z,99.90
2023-04-04T22:35:12.536Z,99.90
2023-04-04T22:38:03.651Z,99.90
2023-04-04T22:40:52.939Z,99.90
2023-04-04T22:43:41.806Z,99.90
2023-04-04T22:46:32.315Z,99.90
2023-04-04T22:49:20.956Z,99.90
2023-04-04T22:52:11.979Z,99.90
2023-04-04T22:55:01.016Z,99.90
2023-04-04T22:57:49.864Z,99.90
2023-04-04T23:00:38.882Z,99.90
2023-04-04T23:03:29.278Z,99.90
2023-04-04T23:06:20.029Z,99.90
2023-04-04T23:09:09.052Z,99.90
2023-04-04T23:11:58.062Z,99.90
2023-04-04T23:14:47.338Z,99.90
2023-04-04T23:17:38.933Z,99.90
2023-04-04T23:20:31.165Z,99.90
2023-04-04T23:23:20.060Z,99.90
2023-04-04T23:26:08.724Z,99.90
2023-04-04T23:28:57.457Z,99.90
2023-04-04T23:31:46.626Z,99.90
2023-04-04T23:34:35.570Z,99.90
2023-04-04T23:37:26.481Z,99.90
2023-04-04T23:40:15.351Z,99.90
2023-04-04T23:43:04.049Z,99.90
2023-04-04T23:45:53.351Z,99.90
2023-04-04T23:48:42.324Z,99.90
2023-04-04T23:51:38.122Z,99.90
2023-04-04T23:54:28.453Z,99.90
2023-04-04T23:57:17.183Z,99.90
